Time;durP1;ratioP1;P1;durP2;ratioP2;P2;SDS_P1;SDS_P2;PMS_P1;PMS_P2;Temp;Humidity;BMP_temperature;BMP_pressure;BME280_temperature;BME280_humidity;BME280_pressure;Samples;Min_cycle;Max_cycle;Signal;HPM_P1;HPM_P2
2022/08/21 00:00:35;;;;;;;0.38;0.10;;;18.90;63.40;21.00;94096.00;;;;10515054;28;45245;-58
2022/08/21 00:05:56;;;;;;;0.30;0.10;;;18.90;63.40;21.00;94086.00;;;;10516609;28;45812;-58
2022/08/21 00:11:18;;;;;;;0.30;0.20;;;18.90;63.40;20.90;94084.00;;;;10516360;27;45235;-58
2022/08/21 00:16:39;;;;;;;0.20;0.20;;;18.90;63.40;21.00;94072.00;;;;10516757;28;45507;-59
2022/08/21 00:22:01;;;;;;;0.10;0.08;;;18.90;63.40;21.00;94075.00;;;;10515819;27;45146;-57
2022/08/21 00:27:22;;;;;;;0.25;0.20;;;18.90;63.30;20.90;94082.00;;;;10515594;28;45220;-59
2022/08/21 00:32:42;;;;;;;0.08;0.05;;;18.90;63.30;20.90;94069.00;;;;10515966;28;45593;-58
2022/08/21 00:38:07;;;;;;;0.82;0.20;;;18.90;63.30;20.90;94074.00;;;;10515402;27;45805;-58
2022/08/21 00:43:34;;;;;;;0.10;0.08;;;18.80;64.00;20.90;94078.00;;;;10514813;28;45253;-59
2022/08/21 00:48:55;;;;;;;0.20;0.10;;;18.80;63.20;20.90;94060.00;;;;10515413;27;45226;-59
2022/08/21 00:54:19;;;;;;;0.20;0.20;;;18.80;63.10;20.90;94071.00;;;;10514941;28;45260;-58
2022/08/21 00:59:43;;;;;;;0.10;0.10;;;18.80;63.10;20.90;94052.00;;;;10511478;27;45352;-57
2022/08/21 01:05:05;;;;;;;0.10;0.10;;;18.90;63.20;20.90;94064.00;;;;10511622;28;45666;-58
2022/08/21 01:10:27;;;;;;;0.10;0.10;;;18.80;63.10;20.90;94067.00;;;;10514238;27;45748;-58
2022/08/21 01:15:52;;;;;;;0.10;0.10;;;18.90;63.20;20.90;94062.00;;;;10514239;28;45222;-59
2022/08/21 01:21:18;;;;;;;0.60;0.20;;;18.80;63.00;20.90;94053.00;;;;10513799;28;45207;-59
2022/08/21 01:26:39;;;;;;;0.20;0.20;;;18.80;63.00;20.90;94048.00;;;;10513869;28;45730;-59
2022/08/21 01:32:03;;;;;;;0.17;0.15;;;18.80;63.00;20.90;94043.00;;;;10514519;27;45203;-58
2022/08/21 01:37:25;;;;;;;0.10;0.10;;;18.80;62.90;20.90;94026.00;;;;10513692;27;45236;-59
2022/08/21 01:42:46;;;;;;;0.17;0.10;;;18.80;62.90;20.90;94034.00;;;;10513018;28;45524;-59
2022/08/21 01:48:07;;;;;;;0.00;0.00;;;18.80;62.90;20.90;94031.00;;;;10513173;27;45211;-59
2022/08/21 01:53:29;;;;;;;0.10;0.10;;;18.80;62.90;20.90;94028.00;;;;10513439;28;45689;-59
2022/08/21 01:58:50;;;;;;;0.20;0.13;;;18.80;62.80;20.90;94017.00;;;;10512572;28;45127;-58
2022/08/21 02:04:11;;;;;;;0.30;0.20;;;18.80;62.80;20.90;94015.00;;;;10499878;28;45795;-58
2022/08/21 02:09:34;;;;;;;0.20;0.20;;;18.80;62.80;20.90;94028.00;;;;10512527;28;45243;-57
2022/08/21 02:14:54;;;;;;;0.15;0.10;;;18.80;62.70;20.90;94024.00;;;;10512448;28;45160;-58
2022/08/21 02:20:19;;;;;;;0.10;0.10;;;18.80;62.70;20.90;94020.00;;;;10498872;28;45769;-59
2022/08/21 02:25:41;;;;;;;0.30;0.20;;;18.80;62.80;20.90;94023.00;;;;10512482;28;45199;-58
2022/08/21 02:31:02;;;;;;;0.90;0.30;;;18.80;62.70;20.90;94009.00;;;;10512292;27;45314;-57
2022/08/21 02:36:23;;;;;;;0.10;0.10;;;18.80;62.70;20.90;94021.00;;;;10511956;28;45255;-59
2022/08/21 02:41:45;;;;;;;0.10;0.10;;;18.80;62.60;20.90;94017.00;;;;10510612;27;45274;-58
2022/08/21 02:47:06;;;;;;;0.32;0.20;;;18.80;62.60;20.90;94018.00;;;;10511482;28;45721;-59
2022/08/21 02:52:27;;;;;;;0.10;0.10;;;18.80;62.50;20.90;94019.00;;;;10511718;28;45959;-60
2022/08/21 02:57:49;;;;;;;0.20;0.20;;;18.80;62.50;20.90;94014.00;;;;10510778;28;45179;-60
2022/08/21 03:03:10;;;;;;;0.10;0.10;;;18.80;62.50;20.90;94018.00;;;;10512209;28;45236;-59
2022/08/21 03:08:31;;;;;;;0.22;0.20;;;18.80;62.40;20.90;94015.00;;;;10511087;28;45180;-60
2022/08/21 03:13:53;;;;;;;0.30;0.20;;;18.80;62.30;20.90;94007.00;;;;10512459;27;45207;-60
2022/08/21 03:19:14;;;;;;;0.20;0.20;;;18.80;62.30;20.90;94003.00;;;;10512676;27;45711;-59
2022/08/21 03:24:35;;;;;;;0.20;0.20;;;18.80;62.30;20.90;93995.00;;;;10518314;28;45253;-59
2022/08/21 03:29:57;;;;;;;0.20;0.20;;;18.80;62.20;20.90;94001.00;;;;10517960;27;46218;-59
2022/08/21 03:35:19;;;;;;;0.43;0.25;;;18.80;62.20;20.90;93998.00;;;;10517181;28;45187;-57
2022/08/21 03:40:40;;;;;;;0.10;0.10;;;18.80;62.20;20.90;93988.00;;;;10516759;27;45711;-59
2022/08/21 03:46:04;;;;;;;0.20;0.10;;;18.80;62.20;20.90;93994.00;;;;10517727;28;45284;-60
2022/08/21 03:51:25;;;;;;;0.63;0.20;;;18.80;62.20;20.90;93980.00;;;;10506248;28;45142;-59
2022/08/21 03:56:45;;;;;;;0.20;0.20;;;18.80;62.10;20.80;93995.00;;;;10516462;28;45218;-59
2022/08/21 04:02:08;;;;;;;0.35;0.20;;;18.80;62.10;20.80;93974.00;;;;10517150;28;45876;-59
2022/08/21 04:07:29;;;;;;;0.40;0.20;;;18.70;62.80;20.80;93981.00;;;;10516501;27;45265;-57
2022/08/21 04:12:49;;;;;;;0.47;0.20;;;18.80;62.00;20.80;93996.00;;;;10517331;28;45679;-57
2022/08/21 04:18:12;;;;;;;0.20;0.20;;;18.70;62.00;20.80;93988.00;;;;10515887;27;45224;-60
2022/08/21 04:23:33;;;;;;;0.43;0.13;;;18.70;61.90;20.80;94001.00;;;;10516217;28;45146;-57
2022/08/21 04:28:57;;;;;;;0.10;0.10;;;18.70;61.90;20.80;94010.00;;;;10516182;28;45224;-59
2022/08/21 04:34:19;;;;;;;0.20;0.10;;;18.70;61.90;20.80;94006.00;;;;10516167;27;45224;-58
2022/08/21 04:39:39;;;;;;;0.22;0.20;;;18.70;61.90;20.80;94008.00;;;;10514870;28;45179;-56
2022/08/21 04:45:00;;;;;;;0.10;0.10;;;18.70;61.90;20.80;94008.00;;;;10515726;28;45250;-58
2022/08/21 04:50:25;;;;;;;0.52;0.20;;;18.80;61.90;20.80;94006.00;;;;10515677;28;45427;-58
2022/08/21 04:55:48;;;;;;;0.73;0.25;;;18.80;61.90;20.80;94018.00;;;;10514866;27;45144;-58
2022/08/21 05:01:16;;;;;;;0.17;0.17;;;18.80;61.90;20.80;94021.00;;;;10515169;28;45156;-58
2022/08/21 05:06:41;;;;;;;0.28;0.28;;;18.70;61.70;20.80;94025.00;;;;10514834;28;45252;-58
2022/08/21 05:12:03;;;;;;;0.30;0.20;;;18.70;61.80;20.80;94015.00;;;;10514571;28;45416;-59
2022/08/21 05:17:24;;;;;;;0.75;0.13;;;18.80;61.70;20.80;94016.00;;;;10514418;27;45141;-59
2022/08/21 05:22:46;;;;;;;0.22;0.15;;;18.70;61.60;20.80;94015.00;;;;10514911;28;45228;-59
2022/08/21 05:28:07;;;;;;;0.13;0.13;;;18.80;61.60;20.80;94015.00;;;;10513951;27;45485;-58
2022/08/21 05:33:27;;;;;;;0.77;0.20;;;18.70;61.60;20.80;94024.00;;;;10514479;28;45100;-60
2022/08/21 05:38:49;;;;;;;0.20;0.20;;;18.70;61.50;20.80;94010.00;;;;10514196;27;45770;-57
2022/08/21 05:44:10;;;;;;;0.20;0.20;;;18.70;61.50;20.80;94019.00;;;;10512704;28;45248;-56
2022/08/21 05:49:30;;;;;;;0.35;0.20;;;18.70;61.50;20.80;94019.00;;;;10513236;27;45223;-58
2022/08/21 05:54:53;;;;;;;0.32;0.20;;;18.70;61.50;20.80;94031.00;;;;10513068;28;45194;-58
2022/08/21 06:00:16;;;;;;;0.73;0.20;;;18.70;61.40;20.80;94023.00;;;;10513304;28;45796;-59
2022/08/21 06:05:37;;;;;;;0.47;0.30;;;18.70;61.40;20.80;94028.00;;;;10512638;28;45175;-56
2022/08/21 06:11:01;;;;;;;0.63;0.20;;;18.70;61.30;20.80;94024.00;;;;10512817;28;45156;-59
2022/08/21 06:16:22;;;;;;;0.63;0.30;;;18.70;61.30;20.80;94024.00;;;;10512209;28;45231;-58
2022/08/21 06:21:43;;;;;;;0.38;0.28;;;18.70;61.30;20.80;94031.00;;;;10512189;27;45286;-57
2022/08/21 06:27:07;;;;;;;0.63;0.28;;;18.70;61.30;20.80;94028.00;;;;10511894;28;45232;-57
2022/08/21 06:32:28;;;;;;;0.20;0.20;;;18.70;61.30;20.80;94033.00;;;;10512571;28;45129;-58
2022/08/21 06:37:48;;;;;;;0.20;0.15;;;18.80;61.30;20.80;94031.00;;;;10511140;28;45230;-59
2022/08/21 06:43:14;;;;;;;0.68;0.40;;;18.80;61.30;20.80;94036.00;;;;10511815;28;45524;-57
2022/08/21 06:48:34;;;;;;;0.15;0.15;;;18.80;61.20;20.80;94016.00;;;;10510904;27;45164;-56
2022/08/21 06:53:55;;;;;;;0.17;0.17;;;18.80;61.20;20.80;94020.00;;;;10510261;28;45270;-58
2022/08/21 06:59:17;;;;;;;0.22;0.20;;;18.80;61.30;20.80;94027.00;;;;10511171;27;45486;-57
2022/08/21 07:04:38;;;;;;;0.35;0.20;;;18.70;61.20;20.80;94027.00;;;;10511156;28;45757;-59
2022/08/21 07:09:58;;;;;;;0.20;0.20;;;18.80;61.20;20.80;94031.00;;;;10511512;28;45437;-57
2022/08/21 07:15:20;;;;;;;0.20;0.13;;;18.70;61.10;20.80;94029.00;;;;10510167;28;45256;-57
2022/08/21 07:20:41;;;;;;;0.35;0.25;;;18.80;61.20;20.90;94036.00;;;;10511191;28;45275;-60
2022/08/21 07:26:02;;;;;;;0.60;0.30;;;18.80;61.30;20.80;94026.00;;;;10505129;28;45204;-58
2022/08/21 07:31:26;;;;;;;1.38;0.30;;;18.70;61.10;20.80;94031.00;;;;10510869;28;45215;-58
2022/08/21 07:36:46;;;;;;;0.30;0.20;;;18.80;61.10;20.80;94035.00;;;;10516552;27;45268;-59
2022/08/21 07:42:07;;;;;;;0.55;0.30;;;18.70;61.10;20.80;94042.00;;;;10509667;28;45134;-56
2022/08/21 07:47:29;;;;;;;0.93;0.30;;;18.80;61.10;20.90;94040.00;;;;10509084;28;45262;-57
2022/08/21 07:52:50;;;;;;;1.30;0.35;;;18.80;61.00;20.80;94047.00;;;;10510387;28;45903;-58
2022/08/21 07:58:11;;;;;;;1.45;0.40;;;18.70;61.00;20.80;94045.00;;;;10509246;28;45780;-59
2022/08/21 08:03:33;;;;;;;1.05;0.65;;;18.80;61.10;20.90;94029.00;;;;10515626;28;45205;-59
2022/08/21 08:08:54;;;;;;;0.50;0.40;;;18.80;61.10;20.80;94053.00;;;;10516909;27;45302;-59
2022/08/21 08:14:15;;;;;;;0.80;0.20;;;18.80;61.10;20.80;94040.00;;;;10515963;28;45211;-58
2022/08/21 08:19:37;;;;;;;1.70;0.50;;;18.70;61.10;20.80;94044.00;;;;10516301;27;45208;-58
2022/08/21 08:24:57;;;;;;;0.63;0.30;;;18.80;61.10;20.80;94044.00;;;;10515751;28;45147;-59
2022/08/21 08:30:20;;;;;;;0.45;0.20;;;18.80;61.10;20.80;94019.00;;;;10516398;27;45962;-58
2022/08/21 08:35:43;;;;;;;0.90;0.25;;;18.80;61.10;20.80;94020.00;;;;10515952;28;45694;-59
2022/08/21 08:41:12;;;;;;;2.47;0.50;;;18.80;61.10;20.80;94011.00;;;;10515952;27;45161;-58
2022/08/21 08:46:40;;;;;;;0.80;0.35;;;18.70;61.00;20.80;94018.00;;;;10514321;28;45729;-58
2022/08/21 08:52:06;;;;;;;1.63;0.57;;;18.80;61.10;20.90;94021.00;;;;10515680;27;45259;-59
2022/08/21 08:57:27;;;;;;;1.35;0.47;;;18.70;61.00;20.90;94018.00;;;;10514452;28;45886;-58
2022/08/21 09:02:48;;;;;;;1.85;0.40;;;18.80;61.00;20.90;94016.00;;;;10509183;28;45173;-59
2022/08/21 09:08:49;;;;;;;1.50;0.40;;;18.80;61.00;20.90;94000.00;;;;10514077;27;45251;-59
2022/08/21 09:14:23;;;;;;;1.20;0.40;;;18.80;61.10;20.90;94003.00;;;;10514281;27;45117;-58
2022/08/21 09:20:00;;;;;;;1.25;0.40;;;18.80;61.00;20.90;94013.00;;;;10514368;27;45173;-59
2022/08/21 09:25:25;;;;;;;;;;;18.80;61.10;20.90;93996.00;;;;10515848;27;45491;-58
2022/08/21 09:30:46;;;;;;;0.75;0.40;;;18.80;61.10;20.90;94004.00;;;;10511914;28;45464;-57
2022/08/21 09:36:07;;;;;;;1.88;0.60;;;18.80;61.00;20.90;93995.00;;;;10513357;28;45236;-59
2022/08/21 09:41:33;;;;;;;1.13;0.50;;;18.80;61.10;20.90;94017.00;;;;10512329;28;45252;-59
2022/08/21 09:46:54;;;;;;;0.70;0.50;;;18.80;61.10;20.90;93995.00;;;;10513512;27;45202;-57
2022/08/21 09:52:21;;;;;;;1.40;0.55;;;18.80;61.20;20.90;93990.00;;;;10511409;27;45188;-57
2022/08/21 09:57:47;;;;;;;1.38;0.50;;;18.80;61.30;20.90;94000.00;;;;10512280;28;45324;-57
2022/08/21 10:03:18;;;;;;;0.83;0.37;;;18.80;61.30;20.90;93986.00;;;;10513248;28;45842;-59
2022/08/21 10:08:41;;;;;;;0.57;0.22;;;18.80;61.40;20.90;93993.00;;;;10513173;27;45197;-58
2022/08/21 10:14:18;;;;;;;2.40;0.55;;;18.80;61.30;20.90;93989.00;;;;10512620;28;45161;-58
2022/08/21 10:19:45;;;;;;;2.03;0.60;;;18.80;61.40;20.90;93984.00;;;;10507975;28;45775;-58
2022/08/21 10:25:17;;;;;;;4.43;0.60;;;18.80;61.20;20.90;93964.00;;;;10511177;27;45229;-59
2022/08/21 10:30:51;;;;;;;1.70;0.57;;;18.80;61.10;20.90;93965.00;;;;10512708;28;45272;-58
2022/08/21 10:36:20;;;;;;;1.90;0.80;;;18.80;61.00;20.90;93959.00;;;;10511391;28;45553;-59
2022/08/21 10:42:07;;;;;;;1.67;0.43;;;18.80;60.70;20.90;93963.00;;;;10500991;28;45423;-58
2022/08/21 10:47:36;;;;;;;1.48;0.60;;;18.80;60.90;20.90;93953.00;;;;10509468;27;47355;-58
2022/08/21 10:53:43;;;;;;;1.30;0.60;;;18.80;60.90;20.90;93975.00;;;;10511932;28;45124;-57
2022/08/21 10:59:27;;;;;;;1.27;0.57;;;18.80;60.80;20.90;93967.00;;;;10379439;28;45769;-59
2022/08/21 11:05:00;;;;;;;0.98;0.50;;;18.80;60.80;20.90;93964.00;;;;10510777;28;45772;-57
2022/08/21 11:10:26;;;;;;;1.08;0.60;;;18.90;60.70;20.90;93946.00;;;;10510872;27;45174;-58
2022/08/21 11:15:57;;;;;;;0.90;0.60;;;18.80;60.70;21.00;93949.00;;;;10510620;28;45790;-58
2022/08/21 11:21:37;;;;;;;0.80;0.50;;;18.90;60.70;21.00;93943.00;;;;10510282;28;45799;-58
2022/08/21 11:27:07;;;;;;;1.00;0.50;;;18.80;60.60;21.00;93919.00;;;;10499133;28;45873;-59
2022/08/21 11:33:01;;;;;;;0.90;0.50;;;18.90;60.60;21.00;93930.00;;;;10509588;28;45207;-59
2022/08/21 11:38:33;;;;;;;1.42;0.47;;;18.90;60.40;21.00;93904.00;;;;10509588;27;45191;-59
2022/08/21 11:44:05;;;;;;;1.23;0.30;;;18.90;60.40;21.00;93930.00;;;;10517338;28;45358;-59
2022/08/21 11:49:47;;;;;;;1.48;0.30;;;18.90;60.20;21.00;93926.00;;;;10517861;27;45343;-56
2022/08/21 11:55:18;;;;;;;4.18;0.60;;;18.90;60.20;21.10;93907.00;;;;10514857;28;45693;-58
2022/08/21 12:00:45;;;;;;;0.73;0.40;;;19.00;60.30;21.10;93904.00;;;;10517135;27;45273;-58
2022/08/21 12:06:08;;;;;;;;;;;18.90;60.10;21.10;93926.00;;;;10517144;28;45687;-57
2022/08/21 12:11:31;;;;;;;0.55;0.35;;;19.00;60.30;21.10;93904.00;;;;10516607;27;45188;-60
2022/08/21 12:16:52;;;;;;;2.90;0.50;;;19.00;60.70;21.20;93913.00;;;;10516700;28;45216;-58
2022/08/21 12:22:14;;;;;;;2.22;0.50;;;19.10;60.00;21.20;93895.00;;;;10516385;27;45296;-57
2022/08/21 12:27:52;;;;;;;2.08;0.55;;;19.20;59.80;21.30;93882.00;;;;10515864;27;45158;-59
2022/08/21 12:33:25;;;;;;;1.75;0.70;;;19.20;59.60;21.30;93897.00;;;;10514934;28;45184;-60
2022/08/21 12:38:51;;;;;;;1.40;0.52;;;19.20;59.90;21.40;93891.00;;;;10510845;27;45673;-59
2022/08/21 12:44:18;;;;;;;3.58;0.70;;;19.30;60.50;21.40;93884.00;;;;10514095;27;45780;-58
2022/08/21 12:49:53;;;;;;;1.13;0.50;;;19.30;60.50;21.40;93875.00;;;;10502196;27;45256;-58
2022/08/21 12:55:16;;;;;;;1.40;0.50;;;19.40;60.00;21.50;93886.00;;;;10514029;28;45194;-58
2022/08/21 13:00:38;;;;;;;2.92;0.65;;;19.40;60.30;21.50;93880.00;;;;10509041;27;45149;-58
2022/08/21 13:06:00;;;;;;;2.97;0.70;;;19.40;60.70;21.50;93873.00;;;;10509710;28;45853;-59
2022/08/21 13:11:23;;;;;;;2.42;0.60;;;19.40;59.90;21.50;93880.00;;;;10513037;27;45264;-59
2022/08/21 13:16:46;;;;;;;3.88;0.90;;;19.40;59.90;21.50;93877.00;;;;10511887;28;45214;-58
2022/08/21 13:22:14;;;;;;;1.30;0.70;;;19.40;59.80;21.50;93865.00;;;;10512302;28;45129;-59
2022/08/21 13:27:35;;;;;;;1.08;0.50;;;19.40;59.70;21.50;93864.00;;;;10513614;27;45419;-59
2022/08/21 13:33:01;;;;;;;1.52;0.50;;;19.40;59.70;21.50;93884.00;;;;10514009;28;45239;-60
2022/08/21 13:38:26;;;;;;;0.60;0.47;;;19.40;59.60;21.50;93877.00;;;;10505476;28;45297;-60
2022/08/21 13:44:01;;;;;;;2.60;0.80;;;19.50;59.90;21.60;93876.00;;;;10513063;28;45773;-58
2022/08/21 13:49:30;;;;;;;2.25;0.47;;;19.50;59.60;21.50;93870.00;;;;10513701;27;45755;-57
2022/08/21 13:54:56;;;;;;;0.68;0.57;;;19.50;59.50;21.50;93870.00;;;;10512041;28;45364;-59
2022/08/21 14:00:21;;;;;;;1.23;0.50;;;19.40;59.40;21.50;93866.00;;;;10511530;27;45875;-59
2022/08/21 14:05:47;;;;;;;0.75;0.60;;;19.40;59.30;21.50;93866.00;;;;10513546;28;45297;-58
2022/08/21 14:11:13;;;;;;;0.87;0.40;;;19.40;59.30;21.50;93867.00;;;;10513260;28;45156;-59
2022/08/21 14:16:45;;;;;;;1.50;0.50;;;19.40;59.40;21.50;93860.00;;;;10512141;28;45161;-60
2022/08/21 14:22:30;;;;;;;0.82;0.45;;;19.40;59.50;21.60;93856.00;;;;10500515;28;45773;-58
2022/08/21 14:27:55;;;;;;;0.80;0.40;;;19.40;59.60;21.70;93851.00;;;;10506147;27;45695;-58
2022/08/21 14:33:26;;;;;;;1.08;0.60;;;19.60;60.00;21.70;93844.00;;;;10511835;28;45196;-59
2022/08/21 14:38:48;;;;;;;1.08;0.50;;;19.60;60.00;21.70;93840.00;;;;10510071;28;45191;-58
2022/08/21 14:44:09;;;;;;;0.55;0.40;;;19.60;60.00;21.70;93835.00;;;;10509311;28;45719;-59
2022/08/21 14:49:30;;;;;;;0.50;0.40;;;19.60;59.80;21.70;93822.00;;;;10511176;28;46053;-58
2022/08/21 14:54:52;;;;;;;2.85;0.57;;;19.70;59.80;21.80;93821.00;;;;10510262;28;45207;-58
2022/08/21 15:00:17;;;;;;;2.80;0.82;;;19.70;59.70;21.80;93828.00;;;;10510786;28;45791;-58
2022/08/21 15:05:37;;;;;;;12.30;3.35;;;19.70;60.20;21.80;93827.00;;;;10505104;28;45211;-59
2022/08/21 15:11:01;;;;;;;8.23;2.47;;;19.70;59.50;21.80;93829.00;;;;10513072;27;45146;-59
2022/08/21 15:16:21;;;;;;;12.40;4.15;;;19.70;59.60;21.80;93812.00;;;;10516921;27;45350;-60
2022/08/21 15:21:42;;;;;;;9.82;3.65;;;19.80;59.70;21.80;93820.00;;;;10518540;27;46044;-59
2022/08/21 15:27:07;;;;;;;11.25;3.38;;;19.70;59.80;21.80;93807.00;;;;10507009;28;45844;-58
2022/08/21 15:32:30;;;;;;;9.65;2.85;;;19.70;59.80;21.80;93811.00;;;;10514266;28;45294;-58
2022/08/21 15:37:51;;;;;;;18.23;4.82;;;19.70;59.90;21.80;93811.00;;;;10518034;27;45857;-64
2022/08/21 15:43:25;;;;;;;16.05;3.92;;;19.70;59.80;21.80;93808.00;;;;10506359;28;45284;-58
2022/08/21 15:48:47;;;;;;;14.23;4.43;;;19.70;60.00;21.70;93801.00;;;;10515909;27;45722;-60
2022/08/21 15:54:07;;;;;;;18.45;4.90;;;19.60;60.00;21.70;93788.00;;;;10517121;28;45824;-59
2022/08/21 15:59:40;;;;;;;16.02;4.50;;;19.60;60.10;21.70;93796.00;;;;10517535;27;45781;-59
2022/08/21 16:05:00;;;;;;;17.25;4.53;;;19.60;60.10;21.70;93794.00;;;;10517221;28;45301;-60
2022/08/21 16:10:23;;;;;;;14.93;4.45;;;19.60;60.00;21.80;93795.00;;;;10516828;28;45146;-58
2022/08/21 16:15:46;;;;;;;24.15;5.10;;;19.70;60.00;21.80;93784.00;;;;10514242;28;45227;-59
2022/08/21 16:21:07;;;;;;;14.43;4.72;;;19.70;59.90;21.80;93786.00;;;;10515751;27;45665;-60
2022/08/21 16:26:29;;;;;;;13.52;4.30;;;19.70;59.80;21.80;93787.00;;;;10522224;28;45338;-59
2022/08/21 16:31:50;;;;;;;18.00;4.20;;;19.70;59.80;21.80;93785.00;;;;10523657;28;45305;-59
2022/08/21 16:37:11;;;;;;;14.90;4.00;;;19.70;59.80;21.80;93773.00;;;;10526457;28;45653;-59
2022/08/21 16:42:32;;;;;;;15.15;4.15;;;19.70;59.80;21.80;93777.00;;;;10523940;28;45387;-59
2022/08/21 16:47:54;;;;;;;13.95;4.07;;;19.70;59.90;21.80;93768.00;;;;10511512;28;45419;-60
2022/08/21 16:53:14;;;;;;;13.60;4.13;;;19.70;59.80;21.80;93775.00;;;;10525346;28;45698;-57
2022/08/21 16:58:39;;;;;;;13.45;3.65;;;19.70;59.80;21.80;93773.00;;;;10525092;27;45203;-59
2022/08/21 17:04:02;;;;;;;16.10;3.83;;;19.70;59.80;21.70;93764.00;;;;10510847;28;45265;-59
2022/08/21 17:09:22;;;;;;;14.38;3.92;;;19.60;59.80;21.70;93768.00;;;;10524102;27;45197;-59
2022/08/21 17:14:43;;;;;;;12.00;3.83;;;19.60;59.90;21.70;93769.00;;;;10523634;28;45702;-59
2022/08/21 17:20:07;;;;;;;10.40;3.55;;;19.60;60.00;21.70;93773.00;;;;10523912;27;45195;-59
2022/08/21 17:25:28;;;;;;;12.90;3.80;;;19.50;60.00;21.70;93769.00;;;;10524384;28;45279;-58
2022/08/21 17:30:51;;;;;;;11.23;3.35;;;19.50;60.00;21.60;93772.00;;;;10512014;28;45128;-58
2022/08/21 17:36:14;;;;;;;9.18;3.08;;;19.50;60.10;21.70;93773.00;;;;10520841;28;45282;-60
2022/08/21 17:41:34;;;;;;;9.35;2.83;;;19.50;60.10;21.60;93779.00;;;;10522916;27;45802;-57
2022/08/21 17:46:55;;;;;;;7.85;3.10;;;19.50;60.10;21.60;93779.00;;;;10523666;28;45283;-58
2022/08/21 17:52:17;;;;;;;9.43;2.72;;;19.50;60.10;21.60;93774.00;;;;10522709;28;45260;-59
2022/08/21 17:57:40;;;;;;;9.10;2.83;;;19.50;60.10;21.60;93782.00;;;;10522084;27;45176;-59
2022/08/21 18:03:06;;;;;;;6.80;2.80;;;19.50;60.10;21.60;93775.00;;;;10523079;28;45243;-60
2022/08/21 18:08:28;;;;;;;11.17;3.10;;;19.50;60.20;21.60;93783.00;;;;10522675;27;45315;-59
2022/08/21 18:13:49;;;;;;;8.20;2.70;;;19.40;60.00;21.50;93779.00;;;;10508399;28;45192;-58
2022/08/21 18:19:14;;;;;;;10.15;3.40;;;19.40;60.10;21.50;93788.00;;;;10522183;27;45456;-58
2022/08/21 18:24:37;;;;;;;11.20;3.15;;;19.40;60.20;21.50;93787.00;;;;10521782;28;45248;-56
2022/08/21 18:29:59;;;;;;;9.73;2.67;;;19.40;60.20;21.50;93782.00;;;;10521015;27;45189;-58
2022/08/21 18:35:20;;;;;;;7.55;2.78;;;19.40;60.20;21.50;93778.00;;;;10521704;28;45670;-60
2022/08/21 18:40:47;;;;;;;8.77;2.85;;;19.30;60.30;21.50;93771.00;;;;10504654;27;45843;-58
2022/08/21 18:46:08;;;;;;;7.60;2.47;;;19.30;60.20;21.50;93792.00;;;;10511416;27;45187;-60
2022/08/21 18:51:29;;;;;;;10.32;2.50;;;19.30;60.20;21.50;93792.00;;;;10511993;28;45152;-59
2022/08/21 18:56:50;;;;;;;7.32;2.08;;;19.30;60.20;21.50;93797.00;;;;10512165;28;45112;-58
2022/08/21 19:02:11;;;;;;;8.57;2.55;;;19.30;61.10;21.50;93780.00;;;;10511975;28;45441;-58
2022/08/21 19:07:31;;;;;;;7.97;2.47;;;19.30;60.20;21.40;93796.00;;;;10511866;28;45184;-60
2022/08/21 19:12:53;;;;;;;6.13;2.38;;;19.30;60.30;21.40;93799.00;;;;10511376;28;45255;-60
2022/08/21 19:18:16;;;;;;;7.88;2.33;;;19.30;60.20;21.40;93802.00;;;;10510108;28;45295;-59
2022/08/21 19:23:37;;;;;;;8.88;2.33;;;19.30;60.20;21.40;93819.00;;;;10500699;28;45205;-58
2022/08/21 19:29:03;;;;;;;7.88;2.22;;;19.30;60.20;21.40;93809.00;;;;10512031;28;46040;-60
2022/08/21 19:34:28;;;;;;;6.43;2.23;;;19.20;60.20;21.40;93809.00;;;;10510529;28;45824;-59
2022/08/21 19:39:48;;;;;;;8.13;2.28;;;19.20;60.20;21.40;93818.00;;;;10497040;28;45318;-58
2022/08/21 19:45:11;;;;;;;5.70;2.35;;;19.30;60.20;21.40;93825.00;;;;10514094;28;45295;-58
2022/08/21 19:50:32;;;;;;;5.25;1.98;;;19.20;60.40;21.40;93831.00;;;;10511300;28;45839;-59
2022/08/21 19:55:52;;;;;;;6.85;2.20;;;19.20;60.20;21.40;93827.00;;;;10512435;27;45221;-59
2022/08/21 20:01:16;;;;;;;5.72;2.20;;;19.20;60.20;21.40;93826.00;;;;10517276;28;45681;-58
2022/08/21 20:06:37;;;;;;;6.63;2.22;;;19.20;60.20;21.40;93823.00;;;;10516734;28;45277;-59
2022/08/21 20:12:04;;;;;;;6.88;2.33;;;19.20;60.20;21.40;93807.00;;;;10516542;27;45898;-59
2022/08/21 20:17:26;;;;;;;7.32;2.15;;;19.20;60.20;21.30;93805.00;;;;10515986;27;45248;-59
2022/08/21 20:22:47;;;;;;;7.32;2.05;;;19.20;60.20;21.30;93807.00;;;;10511421;28;45258;-59
2022/08/21 20:28:08;;;;;;;6.50;2.17;;;19.20;60.30;21.30;93804.00;;;;10516178;27;45814;-59
2022/08/21 20:33:30;;;;;;;6.90;2.00;;;19.20;60.30;21.30;93818.00;;;;10516936;28;45192;-60
2022/08/21 20:38:51;;;;;;;6.85;1.73;;;19.20;60.30;21.30;93816.00;;;;10511400;27;45662;-58
2022/08/21 20:44:13;;;;;;;8.00;2.08;;;19.20;60.30;21.30;93814.00;;;;10510790;28;45349;-57
2022/08/21 20:49:42;;;;;;;4.45;1.80;;;19.10;60.30;21.30;93814.00;;;;10515603;27;45694;-58
2022/08/21 20:55:10;;;;;;;4.32;1.55;;;19.20;60.40;21.30;93813.00;;;;10513095;28;45213;-57
2022/08/21 21:00:38;;;;;;;6.95;2.22;;;19.20;61.10;21.30;93806.00;;;;10514709;27;45292;-60
2022/08/21 21:06:04;;;;;;;3.78;1.52;;;19.20;60.30;21.30;93810.00;;;;10515564;28;46038;-59
2022/08/21 21:11:30;;;;;;;4.90;1.87;;;19.10;60.30;21.30;93814.00;;;;10514501;27;45484;-59
2022/08/21 21:16:55;;;;;;;4.60;1.77;;;19.10;60.30;21.30;93810.00;;;;10514595;28;45157;-59
2022/08/21 21:22:24;;;;;;;4.22;1.65;;;19.10;60.30;21.30;93811.00;;;;10514998;27;45750;-59
2022/08/21 21:27:50;;;;;;;4.93;1.35;;;19.10;60.30;21.20;93810.00;;;;10513473;27;45149;-58
2022/08/21 21:33:13;;;;;;;3.90;1.70;;;19.10;60.80;21.20;93832.00;;;;10514614;28;45926;-60
2022/08/21 21:38:43;;;;;;;3.20;1.40;;;19.10;60.30;21.20;93823.00;;;;10520047;28;45174;-59
2022/08/21 21:44:43;;;;;;;5.05;1.38;;;19.10;60.20;21.20;93817.00;;;;10516135;28;45722;-57
2022/08/21 21:50:25;;;;;;;4.20;1.42;;;19.10;60.20;21.20;93816.00;;;;10519690;28;45070;-59
2022/08/21 21:56:16;;;;;;;4.57;1.42;;;19.10;60.20;21.20;93825.00;;;;10520363;28;45872;-57
2022/08/21 22:01:42;;;;;;;2.72;1.30;;;19.10;60.30;21.20;93813.00;;;;10514121;28;45204;-58
2022/08/21 22:07:10;;;;;;;3.63;1.47;;;19.10;60.30;21.20;93825.00;;;;10520652;28;45079;-59
2022/08/21 22:12:41;;;;;;;5.47;1.40;;;19.10;60.30;21.20;93815.00;;;;10520987;28;45483;-59
2022/08/21 22:18:09;;;;;;;2.95;1.30;;;19.10;60.30;21.20;93815.00;;;;10519275;27;45116;-58
2022/08/21 22:23:34;;;;;;;4.65;1.50;;;19.10;60.30;21.20;93806.00;;;;10520659;28;45295;-57
2022/08/21 22:28:56;;;;;;;3.30;1.33;;;19.00;60.20;21.20;93814.00;;;;10519521;28;45224;-59
2022/08/21 22:34:19;;;;;;;4.13;1.30;;;19.10;60.30;21.20;93808.00;;;;10519165;28;45308;-59
2022/08/21 22:39:42;;;;;;;2.97;1.17;;;19.10;60.30;21.20;93815.00;;;;10518786;28;45785;-59
2022/08/21 22:45:09;;;;;;;3.28;1.00;;;19.10;60.20;21.20;93811.00;;;;10518964;28;45183;-59
2022/08/21 22:50:32;;;;;;;;;;;19.00;60.20;21.20;93825.00;;;;10519552;28;45831;-58
2022/08/21 22:55:58;;;;;;;3.30;1.20;;;19.10;60.20;21.20;93822.00;;;;10517110;28;45251;-59
2022/08/21 23:01:35;;;;;;;3.20;1.25;;;19.10;60.20;21.20;93827.00;;;;10517099;27;45236;-59
2022/08/21 23:06:58;;;;;;;2.63;1.10;;;19.00;60.20;21.20;93812.00;;;;10516846;28;45826;-59
2022/08/21 23:12:27;;;;;;;3.60;1.17;;;19.10;60.20;21.20;93813.00;;;;10516481;28;45160;-60
2022/08/21 23:18:00;;;;;;;3.03;1.08;;;19.00;60.10;21.20;93814.00;;;;10515628;27;45776;-59
2022/08/21 23:23:25;;;;;;;3.25;1.05;;;19.00;60.10;21.20;93814.00;;;;10515853;28;45107;-58
2022/08/21 23:29:01;;;;;;;2.90;0.90;;;19.00;60.20;21.20;93797.00;;;;10513334;28;45690;-58
2022/08/21 23:34:29;;;;;;;2.80;1.10;;;19.00;60.10;21.10;93804.00;;;;10521933;28;45737;-59
2022/08/21 23:40:05;;;;;;;2.22;0.88;;;19.00;60.10;21.10;93806.00;;;;10509536;27;45216;-58
2022/08/21 23:45:40;;;;;;;2.67;1.00;;;19.00;60.10;21.10;93793.00;;;;10521315;28;45693;-58